LFBZ/BIQ METAR and TAF weather

Enter ICAO airport designator
Station Type Date Time Source
LFBZ METAR 2020/09/21 05:00 UTC NOAA

LFBZ 210500Z AUTO 24005KT 210V280 9999 -RA OVC007/// ///CB 18/18 Q1017


Station Type Date Time Source
LFBZ Decoded METAR 2020/09/21 05:00 UTC NOAA

Biarritz, France (LFBZ) 43-28N 001-32W 71M
Sep 21, 2020 - 01:00 AM EDT / 2020.09.21 0500 UTC
Wind: from the WSW (240 degrees) at 6 MPH (5 KT) (direction variable):0
Visibility: greater than 7 mile(s):0
Sky conditions: overcast
Weather: light rain; Cumulonimbus clouds observed
Temperature: 64 F (18 C)
Dew Point: 64 F (18 C)
Relative Humidity: 100%
Pressure (altimeter): 30.03 in. Hg (1017 hPa)
ob: LFBZ 210500Z AUTO 24005KT 210V280 9999 -RA OVC007/// ///CB 18/18 Q1017
cycle: 5

Station Type Date Time Source
LFBZ TAF 2020/09/21 06:21 UTC NOAA

TAF LFBZ 210500Z 2106/2206 22005KT 9999 BKN015
TEMPO 2106/2206 28010KT 4000 SHRA BKN007 SCT020CB BKN025TCU PROB40
TEMPO 2106/2110 28015G25KT 2000 TSRA BKN006 BKN015CB PROB40
TEMPO 2113/2116 25015G25KT 2000 TSRA BKN005 BKN015CB

Example: see airport list